Aidablu — IBWX — position and weather

sailwx.info

Track history (hours):
 
Tides and Currents Weather Stations Pressure Air Temp Water Temp Dewpoint Dewpoint Depression Visibility Wind Speed Wind Dir Waves Ship Positions

Aidablu

Last reported at 2016-Feb-08 12:28 UTC. Time now 2016-Feb-09 20:41 UTC.
Position N 32°39' W 016°55'.

Length 252 m; draft 7.3 m.

Type: Ship. MMSI: 247282500.

Date/timePositionNaut miles runAvg speedWind from/ knotsBaromVisibWave heightAir tempDewpointWater temp
2016-Feb-08 12:28N 32°39' W 016°55'  
2016-Feb-05 10:19N 28°28' W 016°15'135 3.5
2016-Feb-03 19:33N 28°36' W 013°41'1514.8
2016-Feb-03 18:33N 28°49' W 013°34'9 6.3
2016-Feb-03 17:07N 28°58' W 013°32'0 0.0
2016-Feb-03 16:16N 28°58' W 013°32'0 0.0
2016-Feb-03 10:28N 28°58' W 013°32'0 0.0
2016-Feb-03 09:31N 28°58' W 013°32'0 0.0
2016-Feb-03 07:33N 28°58' W 013°32'4 3.9
2016-Feb-03 06:33N 28°55' W 013°35'10 9.6
2016-Feb-03 05:34N 28°50' W 013°43'1211.7
2016-Feb-03 04:33N 28°52' W 013°56'1514.2
2016-Feb-03 03:29N 29°05' W 014°06'1714.1
2016-Feb-03 02:15N 29°19' W 014°17'11013.9
2016-Feb-02 18:18N 30°51' W 015°29'1713.7
2016-Feb-02 17:05N 31°04' W 015°39'713.7
2016-Feb-02 16:33N 31°11' W 015°44'100 2.9
2016-Feb-01 06:20N 32°32' W 016°52'215 8.0
2016-Jan-31 03:29N 29°07' W 015°36'1212.5
2016-Jan-31 02:33N 28°56' W 015°32'1212.4
2016-Jan-31 01:33N 28°45' W 015°27'1212.4
2016-Jan-31 00:33N 28°33' W 015°23'1212.0
2016-Jan-30 23:33N 28°21' W 015°19'1212.2
2016-Jan-30 22:33N 28°09' W 015°22'3 3.0
2016-Jan-30 21:31N 28°08' W 015°25'0 0.0
2016-Jan-30 20:24N 28°08' W 015°25'0 0.0
2016-Jan-30 19:33N 28°08' W 015°25'0 0.0
2016-Jan-30 18:27N 28°08' W 015°25'0 0.0
2016-Jan-30 17:32N 28°08' W 015°25'0 0.0
2016-Jan-30 16:29N 28°08' W 015°25'0 0.0
2016-Jan-30 15:19N 28°08' W 015°25'0 0.0
2016-Jan-30 14:31N 28°08' W 015°25'0 0.0
2016-Jan-30 13:24N 28°08' W 015°25'0 0.0
2016-Jan-30 12:33N 28°08' W 015°25'0 0.0
2016-Jan-30 11:21N 28°08' W 015°25'0 0.0
2016-Jan-30 10:32N 28°08' W 015°25'0 0.0
2016-Jan-30 09:29N 28°08' W 015°25'0 0.0
2016-Jan-30 08:22N 28°08' W 015°25'0 0.0
2016-Jan-30 07:31N 28°08' W 015°25'0 0.0
2016-Jan-30 06:33N 28°08' W 015°25'0 0.0
2016-Jan-30 05:33N 28°08' W 015°25'0 0.0
2016-Jan-30 04:26N 28°08' W 015°25'0 0.0
2016-Jan-30 03:32N 28°08' W 015°25'0 0.0
2016-Jan-30 02:29N 28°08' W 015°25'0 0.0
2016-Jan-30 01:16N 28°08' W 015°25'0 0.4
2016-Jan-30 00:34N 28°08' W 015°25'5 4.8
2016-Jan-29 23:33N 28°13' W 015°25'1212.0
2016-Jan-29 22:33N 28°15' W 015°39'1212.0
2016-Jan-29 21:33N 28°17' W 015°52'1313.0
2016-Jan-29 20:33N 28°24' W 016°05'10 9.5
2016-Jan-29 19:32N 28°28' W 016°15'  
Track history (hours):
 
Tides and Currents Weather Stations Pressure Air Temp Water Temp Dewpoint Dewpoint Depression Visibility Wind Speed Wind Dir Waves Ship Positions

Aidablu

Last reported at 2016-Feb-08 12:28 UTC. Time now 2016-Feb-09 20:41 UTC.
Position N 32°39' W 016°55'.

Length 252 m; draft 7.3 m.

Type: Ship. MMSI: 247282500.

Date/timePositionNaut miles runAvg speedWind from/ knotsBaromVisibWave heightAir tempDewpointWater temp
2016-Feb-08 12:28N 32°39' W 016°55'  
2016-Feb-05 10:19N 28°28' W 016°15'135 3.5
2016-Feb-03 19:33N 28°36' W 013°41'1514.8
2016-Feb-03 18:33N 28°49' W 013°34'9 6.3
2016-Feb-03 17:07N 28°58' W 013°32'0 0.0
2016-Feb-03 16:16N 28°58' W 013°32'0 0.0
2016-Feb-03 10:28N 28°58' W 013°32'0 0.0
2016-Feb-03 09:31N 28°58' W 013°32'0 0.0
2016-Feb-03 07:33N 28°58' W 013°32'4 3.9
2016-Feb-03 06:33N 28°55' W 013°35'10 9.6
2016-Feb-03 05:34N 28°50' W 013°43'1211.7
2016-Feb-03 04:33N 28°52' W 013°56'1514.2
2016-Feb-03 03:29N 29°05' W 014°06'1714.1
2016-Feb-03 02:15N 29°19' W 014°17'11013.9
2016-Feb-02 18:18N 30°51' W 015°29'1713.7
2016-Feb-02 17:05N 31°04' W 015°39'713.7
2016-Feb-02 16:33N 31°11' W 015°44'100 2.9
2016-Feb-01 06:20N 32°32' W 016°52'215 8.0
2016-Jan-31 03:29N 29°07' W 015°36'1212.5
2016-Jan-31 02:33N 28°56' W 015°32'1212.4
2016-Jan-31 01:33N 28°45' W 015°27'1212.4
2016-Jan-31 00:33N 28°33' W 015°23'1212.0
2016-Jan-30 23:33N 28°21' W 015°19'1212.2
2016-Jan-30 22:33N 28°09' W 015°22'3 3.0
2016-Jan-30 21:31N 28°08' W 015°25'0 0.0
2016-Jan-30 20:24N 28°08' W 015°25'0 0.0
2016-Jan-30 19:33N 28°08' W 015°25'0 0.0
2016-Jan-30 18:27N 28°08' W 015°25'0 0.0
2016-Jan-30 17:32N 28°08' W 015°25'0 0.0
2016-Jan-30 16:29N 28°08' W 015°25'0 0.0
2016-Jan-30 15:19N 28°08' W 015°25'0 0.0
2016-Jan-30 14:31N 28°08' W 015°25'0 0.0
2016-Jan-30 13:24N 28°08' W 015°25'0 0.0
2016-Jan-30 12:33N 28°08' W 015°25'0 0.0
2016-Jan-30 11:21N 28°08' W 015°25'0 0.0
2016-Jan-30 10:32N 28°08' W 015°25'0 0.0
2016-Jan-30 09:29N 28°08' W 015°25'0 0.0
2016-Jan-30 08:22N 28°08' W 015°25'0 0.0
2016-Jan-30 07:31N 28°08' W 015°25'0 0.0
2016-Jan-30 06:33N 28°08' W 015°25'0 0.0
2016-Jan-30 05:33N 28°08' W 015°25'0 0.0
2016-Jan-30 04:26N 28°08' W 015°25'0 0.0
2016-Jan-30 03:32N 28°08' W 015°25'0 0.0
2016-Jan-30 02:29N 28°08' W 015°25'0 0.0
2016-Jan-30 01:16N 28°08' W 015°25'0 0.4
2016-Jan-30 00:34N 28°08' W 015°25'5 4.8
2016-Jan-29 23:33N 28°13' W 015°25'1212.0
2016-Jan-29 22:33N 28°15' W 015°39'1212.0
2016-Jan-29 21:33N 28°17' W 015°52'1313.0
2016-Jan-29 20:33N 28°24' W 016°05'10 9.5
2016-Jan-29 19:32N 28°28' W 016°15'  

Dump ship's entire track history